Bluegrove, Texas
Current Conditions -  °F | °C
As of 2:55 PM on Sunday 21 Dec 2014 (Local Time) from KCWC Reporting Station
Broken Clouds Broken Clouds  
Wind Chill: 13°   Ceiling: 2200
Heat Index: 13°   Visibility: 10mi
Dew Point:   Wind: 14mph
Humidity: 68%   Direction: 180°S
Pressure: 29.77"   Gusts: 23mph
Location:  33.67°N, 98.23°W
Report Text: KCWC 212055Z AUTO 18012G20KT 10SM BKN022 13/07 A2977 RMK AO2 T01280071
Loading
Personal Weather Stations






























Interactive Weather Map New forecast layout! Learn more

10-Day Weather Forecast

Advertisements
Track Severe Weather on mobile